Portada
METAR-TAF:

METAR-TAF

Aeropuertos :

Aeropuerto Internacional Faa'a

Tahití, Polinesia Francesa

latitud: 17-33S, longitud: 149-37W, altitud: 2 m

Observación

El informe se hizo hace 19 minutos, a las 06:00 UTC
Viento 3 kt del sur-sureste, variando entre este-sureste y sur
Temperatura 29°C
Humedad 70%
Presión 1013 hPa
Visibilidad 10 km o más
Escasas nubes a una altura de 2600 ft

METAR: NTAA 190600Z 16003KT 120V180 9999 FEW026 29/23 Q1013 NOSIG

Hora: 20:19 (06:19 UTC)

Pronóstico

El informe se hizo hace 1 hora y 19 minutos, a las 05:00 UTC
Pronóstico válido del 19 a las 06 UTC al 20 a las 12 UTC
Viento 5 kt con dirección variable
Visibilidad 10 km o más
Escasas nubes a una altura de 2300 ft
Nubes dispersas a una altura de 5000 ft
Evolucionando progresivamente
del 19 a las 20 UTC al 19 a las 21 UTC
Viento 15 kt del noreste

TAF: NTAA 190500Z 1906/2012 VRB05KT 9999 FEW023 SCT050 BECMG 1920/1921 05015KT

Observaciones y pronósticos meteorológicos de más de 4000 aeropuertos (mensajes METAR y TAF).

Los puntos amarillos y rojos representan las estaciones disponibles.

Ponga el ratón en el punto deseado para ver el nombre de la estación.

Haga clic para ver las observaciones y los pronósticos meteorológicos.

Para cambiar el mapa : haga clic en los botones verdes con una cruz de color negro para hacer un zoom, en el botón verde con un guión para alejar o en las flechas verdes para mapas adyacentes.


METAR-TAF: